Time;durP1;ratioP1;P1;durP2;ratioP2;P2;SDS_P1;SDS_P2;PMS_P1;PMS_P2;Temp;Humidity;BMP_temperature;BMP_pressure;BME280_temperature;BME280_humidity;BME280_pressure;Samples;Min_cycle;Max_cycle;Signal;HPM_P1;HPM_P2
2021/10/24 00:01:03;;;;;;;0.30;0.30;;;;;;;3.19;66.16;97592.72;5075786;28;20038;-69
2021/10/24 00:03:30;;;;;;;0.20;0.20;;;;;;;3.18;66.32;97593.75;5076010;28;20495;-71
2021/10/24 00:05:56;;;;;;;0.63;0.55;;;;;;;3.13;66.44;97600.66;5075801;28;20051;-70
2021/10/24 00:08:22;;;;;;;0.20;0.20;;;;;;;3.11;66.47;97607.38;5076394;28;20043;-68
2021/10/24 00:10:48;;;;;;;0.25;0.25;;;;;;;3.11;66.49;97607.38;5075571;28;20032;-69
2021/10/24 00:13:14;;;;;;;0.70;0.55;;;;;;;3.10;66.42;97614.66;5077561;28;20032;-69
2021/10/24 00:15:40;;;;;;;0.20;0.20;;;;;;;3.09;66.48;97618.44;5077917;28;20059;-68
2021/10/24 00:18:06;;;;;;;0.35;0.35;;;;;;;3.09;66.45;97633.84;5077373;28;20044;-68
2021/10/24 00:20:32;;;;;;;0.20;0.20;;;;;;;3.08;66.54;97633.03;5075624;28;20036;-67
2021/10/24 00:22:59;;;;;;;0.22;0.22;;;;;;;3.07;66.54;97636.78;5075800;28;20064;-72
2021/10/24 00:25:26;;;;;;;0.20;0.20;;;;;;;3.10;66.37;97638.25;5075095;28;20064;-69
2021/10/24 00:27:51;;;;;;;0.32;0.32;;;;;;;3.12;66.42;97642.41;5074758;28;20044;-70
2021/10/24 00:30:17;;;;;;;0.20;0.20;;;;;;;3.12;66.39;97642.41;5075044;28;20028;-70
2021/10/24 00:32:43;;;;;;;1.27;0.40;;;;;;;3.13;66.33;97635.91;5073948;28;20482;-70
2021/10/24 00:35:09;;;;;;;0.20;0.20;;;;;;;3.11;66.56;97635.31;5073490;28;20032;-71
2021/10/24 00:37:35;;;;;;;0.20;0.20;;;;;;;3.10;66.73;97647.19;5074788;28;20032;-72
2021/10/24 00:40:01;;;;;;;0.20;0.20;;;;;;;3.10;66.55;97640.97;5074765;28;20029;-71
2021/10/24 00:42:27;;;;;;;0.75;0.75;;;;;;;3.11;66.52;97640.75;5074742;28;20025;-72
2021/10/24 00:44:53;;;;;;;0.75;0.57;;;;;;;3.11;66.65;97640.75;5074867;28;20033;-71
2021/10/24 00:47:18;;;;;;;0.50;0.50;;;;;;;3.11;66.60;97638.03;5074935;28;20029;-72
2021/10/24 00:49:44;;;;;;;0.10;0.10;;;;;;;3.11;66.64;97645.34;5075118;28;20128;-72
2021/10/24 00:52:11;;;;;;;0.50;0.50;;;;;;;3.11;66.50;97651.59;5076420;28;20031;-70
2021/10/24 00:54:39;;;;;;;0.20;0.20;;;;;;;3.09;66.67;97656.41;5076358;28;20036;-70
2021/10/24 00:57:05;;;;;;;0.30;0.30;;;;;;;3.08;66.81;97672.91;5075351;28;20032;-73
2021/10/24 00:59:31;;;;;;;0.30;0.30;;;;;;;3.07;66.84;97663.91;5074220;28;20118;-73
2021/10/24 01:01:57;;;;;;;0.22;0.22;;;;;;;3.08;66.80;97668.28;5073745;28;20437;-73
2021/10/24 01:04:23;;;;;;;0.28;0.28;;;;;;;3.10;66.77;97668.91;5074522;28;20048;-73
2021/10/24 01:06:51;;;;;;;0.63;0.63;;;;;;;3.11;66.77;97648.06;5073137;28;20067;-73
2021/10/24 01:09:21;;;;;;;0.28;0.28;;;;;;;3.12;66.86;97664.13;5074260;28;20055;-74
2021/10/24 01:11:49;;;;;;;0.40;0.40;;;;;;;3.18;66.87;97658.84;5056340;28;20123;-73
2021/10/24 01:14:14;;;;;;;0.30;0.30;;;;;;;3.24;66.67;97666.13;5074537;28;20462;-73
2021/10/24 01:16:43;;;;;;;0.20;0.20;;;;;;;3.33;66.55;97656.72;5072893;28;20120;-73
2021/10/24 01:19:11;;;;;;;0.40;0.40;;;;;;;3.41;66.35;97653.72;5073682;28;20044;-70
2021/10/24 01:21:38;;;;;;;1.65;0.55;;;;;;;3.51;66.10;97664.94;5073628;28;20479;-71
2021/10/24 01:24:04;;;;;;;0.60;0.60;;;;;;;3.58;65.90;97654.06;5073895;28;20032;-72
2021/10/24 01:26:33;;;;;;;0.65;0.65;;;;;;;3.62;65.97;97663.44;5073706;28;20408;-70
2021/10/24 01:28:59;;;;;;;0.30;0.30;;;;;;;3.64;65.91;97657.78;5073389;28;20525;-72
2021/10/24 01:31:25;;;;;;;0.35;0.35;;;;;;;3.62;66.11;97649.88;5075111;28;20036;-71
2021/10/24 01:33:51;;;;;;;0.30;0.30;;;;;;;3.60;66.19;97651.13;5082476;28;20048;-70
2021/10/24 01:36:16;;;;;;;0.20;0.20;;;;;;;3.56;66.41;97650.72;5074143;28;20498;-70
2021/10/24 01:38:49;;;;;;;0.30;0.30;;;;;;;3.50;66.57;97641.59;5073208;28;20122;-69
2021/10/24 01:41:16;;;;;;;0.50;0.50;;;;;;;3.44;66.71;97642.44;5073288;28;20032;-70
2021/10/24 01:43:42;;;;;;;0.30;0.30;;;;;;;3.37;66.93;97640.81;5073435;28;20102;-73
2021/10/24 01:46:08;;;;;;;0.20;0.20;;;;;;;3.29;67.27;97639.19;5073509;28;20466;-72
2021/10/24 01:48:33;;;;;;;0.32;0.32;;;;;;;3.25;67.32;97638.78;5073298;28;20060;-71
2021/10/24 01:50:59;;;;;;;0.20;0.20;;;;;;;3.24;67.38;97636.28;5073497;28;20086;-73
2021/10/24 01:53:28;;;;;;;0.20;0.20;;;;;;;3.22;67.57;97643.81;5073365;28;20491;-72
2021/10/24 01:55:54;;;;;;;0.40;0.40;;;;;;;3.23;67.48;97637.34;5073098;28;20036;-73
2021/10/24 01:58:21;;;;;;;0.30;0.30;;;;;;;3.25;67.53;97637.97;5072854;28;20044;-71
2021/10/24 02:00:49;;;;;;;0.30;0.30;;;;;;;3.25;67.32;97646.09;5073005;28;20131;-71
2021/10/24 02:03:16;;;;;;;0.65;0.40;;;;;;;3.27;67.40;97654.88;5072328;28;20032;-71
2021/10/24 02:05:42;;;;;;;0.25;0.25;;;;;;;3.26;67.41;97653.19;5072840;28;20086;-70
2021/10/24 02:08:09;;;;;;;0.68;0.60;;;;;;;3.25;67.26;97646.91;5074537;28;20029;-74
2021/10/24 02:10:36;;;;;;;0.50;0.50;;;;;;;3.23;67.33;97648.22;5075113;28;20040;-73
2021/10/24 02:13:03;;;;;;;0.20;0.20;;;;;;;3.20;67.51;97646.75;5074266;28;20029;-74
2021/10/24 02:15:29;;;;;;;0.28;0.28;;;;;;;3.18;67.72;97648.00;5072848;28;20047;-73
2021/10/24 02:17:55;;;;;;;0.40;0.40;;;;;;;3.14;67.62;97643.03;5072700;28;20035;-74
2021/10/24 02:20:22;;;;;;;0.40;0.40;;;;;;;3.12;67.79;97638.84;5072990;28;20032;-72
2021/10/24 02:22:48;;;;;;;0.38;0.38;;;;;;;3.10;67.62;97641.78;5073587;28;20039;-70
2021/10/24 02:25:14;;;;;;;0.50;0.50;;;;;;;3.07;67.72;97655.78;5074240;28;20107;-72
2021/10/24 02:27:40;;;;;;;0.45;0.45;;;;;;;3.08;67.91;97653.91;5074496;28;20060;-73
2021/10/24 02:30:08;;;;;;;0.32;0.30;;;;;;;3.09;67.73;97645.56;5074015;28;20063;-72
2021/10/24 02:32:34;;;;;;;0.30;0.30;;;;;;;3.11;67.69;97653.47;5074665;28;20081;-71
2021/10/24 02:35:00;;;;;;;1.85;0.57;;;;;;;3.10;67.77;97673.50;5074179;28;20040;-73
2021/10/24 02:37:25;;;;;;;0.30;0.30;;;;;;;3.10;67.74;97668.06;5073680;28;20039;-73
2021/10/24 02:39:51;;;;;;;0.30;0.30;;;;;;;3.07;67.68;97673.94;5073433;28;20036;-72
2021/10/24 02:42:17;;;;;;;0.20;0.20;;;;;;;3.04;67.92;97667.06;5073618;28;20109;-72
2021/10/24 02:44:43;;;;;;;0.25;0.25;;;;;;;3.02;67.96;97668.31;5072891;28;20151;-70
2021/10/24 02:47:09;;;;;;;0.30;0.30;;;;;;;2.97;68.08;97660.81;5072624;28;20115;-72
2021/10/24 02:49:35;;;;;;;0.50;0.50;;;;;;;2.95;68.14;97649.38;5071858;28;20131;-72
2021/10/24 02:52:01;;;;;;;0.30;0.30;;;;;;;2.92;68.19;97660.66;5072177;28;20032;-73
2021/10/24 02:54:29;;;;;;;0.20;0.20;;;;;;;2.89;68.28;97645.63;5072594;28;20039;-73
2021/10/24 02:56:55;;;;;;;0.25;0.22;;;;;;;2.87;68.34;97646.88;5073047;28;20120;-72
2021/10/24 02:59:21;;;;;;;0.30;0.30;;;;;;;2.88;68.33;97641.25;5072168;28;20047;-71
2021/10/24 03:01:48;;;;;;;0.30;0.30;;;;;;;2.91;68.31;97643.53;5071855;28;20411;-72
2021/10/24 03:04:14;;;;;;;0.47;0.40;;;;;;;2.93;68.09;97644.16;5072159;28;20059;-71
2021/10/24 03:06:41;;;;;;;0.55;0.50;;;;;;;2.96;68.06;97646.44;5071996;28;20036;-71
2021/10/24 03:09:07;;;;;;;0.20;0.20;;;;;;;3.01;68.13;97645.78;5072816;28;20081;-70
2021/10/24 03:11:33;;;;;;;0.40;0.40;;;;;;;3.05;67.90;97654.31;5073357;28;20045;-71
2021/10/24 03:13:59;;;;;;;0.28;0.28;;;;;;;3.07;67.87;97663.09;5074216;28;20040;-69
2021/10/24 03:16:25;;;;;;;0.30;0.30;;;;;;;3.11;67.85;97662.44;5077085;28;20115;-71
2021/10/24 03:18:51;;;;;;;0.22;0.22;;;;;;;3.14;67.92;97666.59;5076219;28;20482;-71
2021/10/24 03:21:17;;;;;;;3.92;0.95;;;;;;;3.14;67.80;97666.59;5075222;28;20127;-70
2021/10/24 03:23:43;;;;;;;0.20;0.20;;;;;;;3.12;67.84;97658.69;5078318;28;20064;-72
2021/10/24 03:26:09;;;;;;;0.73;0.73;;;;;;;3.10;67.92;97649.91;5077667;28;20064;-73
2021/10/24 03:28:36;;;;;;;0.40;0.40;;;;;;;3.11;67.95;97648.88;5079894;28;20032;-72
2021/10/24 03:31:02;;;;;;;0.30;0.30;;;;;;;3.10;67.94;97652.63;5077298;28;20036;-72
2021/10/24 03:33:28;;;;;;;0.30;0.30;;;;;;;3.11;68.06;97642.63;5079265;28;20119;-72
2021/10/24 03:35:53;;;;;;;0.30;0.30;;;;;;;3.12;67.88;97647.84;5079810;28;20074;-75
2021/10/24 03:38:19;;;;;;;0.20;0.20;;;;;;;3.15;67.95;97646.56;5078565;28;20039;-74
2021/10/24 03:40:45;;;;;;;14.40;1.00;;;;;;;3.17;67.88;97646.38;5080035;28;20062;-76
2021/10/24 03:43:13;;;;;;;0.30;0.30;;;;;;;3.19;67.85;97655.09;5079064;28;20048;-73
2021/10/24 03:45:41;;;;;;;0.30;0.30;;;;;;;3.23;67.76;97648.22;5076459;28;20032;-72
2021/10/24 03:48:11;;;;;;;0.20;0.20;;;;;;;3.26;67.73;97648.59;5075797;28;20071;-73
2021/10/24 03:50:41;;;;;;;0.55;0.55;;;;;;;3.35;67.51;97651.06;5078589;28;20486;-76
2021/10/24 03:53:10;;;;;;;0.55;0.50;;;;;;;3.42;67.31;97644.53;5075218;28;20064;-72
2021/10/24 03:55:38;;;;;;;0.30;0.30;;;;;;;3.54;67.01;97655.53;5074628;28;20044;-70
2021/10/24 03:58:03;;;;;;;0.20;0.20;;;;;;;3.64;66.94;97652.34;5075055;28;20028;-74
2021/10/24 04:00:29;;;;;;;0.40;0.40;;;;;;;3.73;66.64;97658.34;5074271;28;20454;-70
2021/10/24 04:03:01;;;;;;;0.20;0.20;;;;;;;3.81;66.62;97667.06;5076872;28;20060;-72
2021/10/24 04:05:28;;;;;;;1.27;1.27;;;;;;;3.85;66.51;97670.16;5076540;28;20044;-70
2021/10/24 04:07:55;;;;;;;0.30;0.30;;;;;;;3.89;66.37;97659.69;5075401;28;20040;-73
2021/10/24 04:10:23;;;;;;;0.57;0.52;;;;;;;3.99;66.13;97668.16;5075370;28;20043;-71
2021/10/24 04:12:50;;;;;;;0.68;0.68;;;;;;;4.10;66.08;97669.38;5076449;28;20487;-73
2021/10/24 04:15:18;;;;;;;0.25;0.25;;;;;;;4.18;66.00;97669.91;5074172;28;20032;-74
2021/10/24 04:17:44;;;;;;;0.22;0.22;;;;;;;4.25;65.93;97663.59;5074892;28;20048;-71
2021/10/24 04:20:16;;;;;;;0.30;0.30;;;;;;;4.27;65.86;97662.31;5074860;28;20036;-72
2021/10/24 04:22:43;;;;;;;0.20;0.20;;;;;;;4.28;66.04;97650.38;5078052;28;20063;-71
2021/10/24 04:25:10;;;;;;;0.20;0.20;;;;;;;4.35;65.92;97644.91;5075312;28;20410;-73
2021/10/24 04:27:36;;;;;;;0.30;0.30;;;;;;;4.41;65.91;97640.47;5072645;28;20397;-67
2021/10/24 04:30:05;;;;;;;0.20;0.20;;;;;;;4.44;65.74;97640.00;5074107;28;20406;-72
2021/10/24 04:32:31;;;;;;;0.68;0.50;;;;;;;4.46;65.74;97638.72;5074818;28;20094;-73
2021/10/24 04:34:57;;;;;;;0.30;0.30;;;;;;;4.51;65.76;97641.59;5074986;28;20120;-71
2021/10/24 04:37:23;;;;;;;0.20;0.20;;;;;;;4.57;65.57;97634.44;5074669;28;20115;-72
2021/10/24 04:39:49;;;;;;;0.68;0.50;;;;;;;4.61;65.55;97634.78;5076149;28;20058;-71
2021/10/24 04:42:14;;;;;;;0.30;0.30;;;;;;;4.67;65.49;97629.31;5070009;28;20064;-79
2021/10/24 04:44:40;;;;;;;0.55;0.55;;;;;;;4.71;65.25;97635.09;5063290;28;20037;-73
2021/10/24 04:47:06;;;;;;;0.20;0.20;;;;;;;4.73;65.26;97644.72;5055240;28;20041;-74
2021/10/24 04:49:32;;;;;;;0.40;0.40;;;;;;;4.73;65.34;97639.28;5056585;28;20037;-70
2021/10/24 04:51:59;;;;;;;0.30;0.30;;;;;;;4.73;65.34;97635.72;5074409;28;20128;-72
2021/10/24 04:54:25;;;;;;;0.40;0.40;;;;;;;4.77;65.40;97642.38;5075456;28;20068;-75
2021/10/24 04:56:51;;;;;;;0.95;0.68;;;;;;;4.85;65.09;97642.06;5075117;28;20078;-72
2021/10/24 04:59:18;;;;;;;0.30;0.30;;;;;;;5.00;64.74;97643.56;5071883;28;20082;-78
2021/10/24 05:01:45;;;;;;;0.30;0.30;;;;;;;5.14;64.54;97639.63;5073788;28;20028;-69
2021/10/24 05:04:11;;;;;;;0.43;0.30;;;;;;;5.21;64.46;97640.38;5073486;28;20063;-73
2021/10/24 05:06:38;;;;;;;0.77;0.77;;;;;;;5.22;64.44;97628.44;5074644;28;20410;-71
2021/10/24 05:09:05;;;;;;;0.20;0.20;;;;;;;5.29;64.41;97636.50;5073450;28;20119;-74
2021/10/24 05:11:31;;;;;;;0.30;0.30;;;;;;;5.38;64.34;97623.41;5069251;28;20435;-75
2021/10/24 05:13:58;;;;;;;0.47;0.47;;;;;;;5.46;64.16;97617.63;5063142;28;20032;-79
2021/10/24 05:16:24;;;;;;;0.20;0.20;;;;;;;5.53;64.23;97614.81;5058409;28;20460;-74
2021/10/24 05:18:49;;;;;;;3.17;0.57;;;;;;;5.55;64.14;97613.53;5048542;28;20037;-79
2021/10/24 05:21:15;;;;;;;0.50;0.50;;;;;;;5.55;64.26;97613.53;5051104;28;20045;-73
2021/10/24 05:23:41;;;;;;;1.38;0.30;;;;;;;5.50;64.44;97610.66;5049038;28;20102;-73
2021/10/24 05:26:07;;;;;;;0.22;0.22;;;;;;;5.46;64.62;97601.28;5047851;28;20191;-73
2021/10/24 05:28:33;;;;;;;0.22;0.22;;;;;;;5.41;64.63;97601.19;5063761;28;20037;-77
2021/10/24 05:30:59;;;;;;;0.38;0.38;;;;;;;5.33;64.89;97621.41;5048946;28;20059;-74
2021/10/24 05:33:25;;;;;;;1.23;0.38;;;;;;;5.24;65.25;97623.59;5048424;28;20574;-75
2021/10/24 05:35:53;;;;;;;0.52;0.52;;;;;;;5.20;65.26;97597.09;5050553;28;20044;-73
2021/10/24 05:38:20;;;;;;;0.52;0.52;;;;;;;5.22;65.06;97598.50;5051608;28;20474;-71
2021/10/24 05:40:48;;;;;;;0.20;0.20;;;;;;;5.36;64.98;97609.19;5053018;28;20560;-73
2021/10/24 05:43:14;;;;;;;0.20;0.20;;;;;;;5.56;64.33;97587.94;5052705;28;20045;-73
2021/10/24 05:45:44;;;;;;;0.30;0.30;;;;;;;5.74;64.02;97578.06;5052819;28;20060;-73
2021/10/24 05:48:11;;;;;;;0.20;0.20;;;;;;;5.93;63.59;97581.50;5061127;28;20047;-73
2021/10/24 05:50:37;;;;;;;0.22;0.22;;;;;;;6.13;63.15;97592.94;5058505;28;20029;-74
2021/10/24 05:53:03;;;;;;;0.40;0.40;;;;;;;6.34;62.80;97581.69;5053058;28;20194;-72
2021/10/24 05:55:31;;;;;;;0.20;0.20;;;;;;;6.55;62.35;97583.81;5053020;28;20028;-81
2021/10/24 05:57:58;;;;;;;0.45;0.40;;;;;;;6.80;62.01;97591.72;5052445;28;20149;-78
2021/10/24 06:00:24;;;;;;;0.25;0.25;;;;;;;7.06;61.55;97586.78;5052196;28;20102;-76
2021/10/24 06:02:50;;;;;;;0.20;0.20;;;;;;;7.21;61.47;97580.78;5053800;28;20024;-75
2021/10/24 06:05:15;;;;;;;0.40;0.40;;;;;;;7.33;61.10;97578.84;5051208;28;20107;-76
2021/10/24 06:07:41;;;;;;;0.43;0.40;;;;;;;7.46;60.95;97574.97;5084264;28;20072;-78
2021/10/24 06:10:17;;;;;;;0.30;0.30;;;;;;;7.56;60.86;97574.34;5069782;28;20058;-79
2021/10/24 06:12:51;;;;;;;0.22;0.22;;;;;;;7.68;60.79;97583.28;5071642;28;20502;-77
2021/10/24 06:15:19;;;;;;;0.40;0.40;;;;;;;7.76;61.03;97582.06;5072017;28;20119;-68
2021/10/24 06:17:46;;;;;;;0.20;0.20;;;;;;;7.74;60.91;97586.94;5071476;28;20029;-69
2021/10/24 06:20:15;;;;;;;0.20;0.20;;;;;;;7.67;61.40;97589.84;5071848;28;20055;-73
2021/10/24 06:22:42;;;;;;;0.25;0.25;;;;;;;7.67;61.23;97589.84;5071732;28;20445;-70
2021/10/24 06:25:10;;;;;;;0.20;0.20;;;;;;;7.62;61.66;97584.28;5071459;28;20043;-71
2021/10/24 06:27:38;;;;;;;0.22;0.22;;;;;;;7.52;61.70;97587.66;5087354;28;20490;-69
2021/10/24 06:30:09;;;;;;;0.20;0.20;;;;;;;7.43;61.87;97591.84;5073021;28;20105;-71
2021/10/24 06:32:36;;;;;;;7.57;0.82;;;;;;;7.42;62.23;97584.75;5069200;28;20115;-76
2021/10/24 06:35:04;;;;;;;0.30;0.30;;;;;;;7.42;62.17;97582.00;5071778;28;20036;-74
2021/10/24 06:37:35;;;;;;;0.43;0.43;;;;;;;7.42;62.18;97581.16;5072518;28;20032;-72
2021/10/24 06:40:02;;;;;;;0.20;0.20;;;;;;;7.44;62.14;97579.03;5071656;28;20064;-76
2021/10/24 06:42:28;;;;;;;0.38;0.38;;;;;;;7.49;62.05;97582.69;5073796;28;20043;-78
2021/10/24 06:44:54;;;;;;;0.40;0.40;;;;;;;7.52;61.79;97581.34;5073041;28;20398;-75
2021/10/24 06:47:20;;;;;;;2.40;0.60;;;;;;;7.57;61.78;97580.63;5077035;28;20032;-74
2021/10/24 06:49:47;;;;;;;0.20;0.20;;;;;;;7.61;61.78;97574.44;5074293;28;20032;-72
2021/10/24 06:52:13;;;;;;;0.30;0.30;;;;;;;7.59;61.82;97571.09;5072547;28;20040;-71
2021/10/24 06:54:39;;;;;;;0.40;0.40;;;;;;;7.62;61.77;97561.59;5070702;28;20462;-72
2021/10/24 06:57:04;;;;;;;0.20;0.20;;;;;;;7.64;61.75;97565.75;5072317;28;20037;-74
2021/10/24 06:59:42;;;;;;;0.30;0.30;;;;;;;7.66;61.79;97560.03;5068838;28;20052;-73
2021/10/24 07:02:12;;;;;;;0.20;0.20;;;;;;;7.69;61.68;97549.44;5071533;28;20028;-71
2021/10/24 07:04:37;;;;;;;0.38;0.30;;;;;;;7.75;61.44;97561.28;5072290;28;20429;-72
2021/10/24 07:07:04;;;;;;;0.40;0.40;;;;;;;7.75;61.43;97546.78;5071270;28;20025;-74
2021/10/24 07:09:30;;;;;;;0.20;0.20;;;;;;;7.78;61.33;97551.75;5072095;28;20070;-71
2021/10/24 07:11:58;;;;;;;0.20;0.20;;;;;;;7.80;61.40;97549.59;5070691;28;20055;-72
2021/10/24 07:14:26;;;;;;;0.40;0.40;;;;;;;7.83;61.44;97554.56;5062233;28;20090;-70
2021/10/24 07:16:51;;;;;;;2.88;1.02;;;;;;;7.85;61.28;97558.72;5069664;28;20086;-76
2021/10/24 07:19:17;;;;;;;0.52;0.40;;;;;;;7.84;61.31;97553.50;5072089;28;20044;-73
2021/10/24 07:21:43;;;;;;;0.40;0.40;;;;;;;7.82;61.37;97552.94;5073190;28;20059;-68
2021/10/24 07:24:09;;;;;;;0.60;0.60;;;;;;;7.85;61.52;97546.97;5072023;28;20520;-71
2021/10/24 07:26:37;;;;;;;0.30;0.30;;;;;;;7.89;61.46;97548.09;5072144;28;20039;-70
2021/10/24 07:29:03;;;;;;;0.20;0.20;;;;;;;7.95;61.18;97547.13;5070437;28;20135;-72
2021/10/24 07:31:31;;;;;;;0.20;0.20;;;;;;;8.04;61.05;97545.63;5071473;28;20107;-71
2021/10/24 07:33:58;;;;;;;1.00;0.50;;;;;;;8.12;60.97;97540.81;5071433;28;20041;-72
2021/10/24 07:36:28;;;;;;;0.20;0.20;;;;;;;8.19;60.80;97538.75;5069855;28;20025;-70
2021/10/24 07:38:53;;;;;;;0.50;0.50;;;;;;;8.21;60.81;97537.38;5067379;28;20039;-70
2021/10/24 07:41:19;;;;;;;8.25;0.50;;;;;;;8.25;60.73;97540.47;5080559;28;20406;-69
2021/10/24 07:43:45;;;;;;;0.30;0.30;;;;;;;8.29;60.79;97536.16;5063796;28;20039;-70
2021/10/24 07:46:11;;;;;;;0.30;0.30;;;;;;;8.31;60.82;97533.16;5065316;28;20044;-72
2021/10/24 07:48:37;;;;;;;0.73;0.73;;;;;;;8.29;60.89;97527.94;5063130;28;20029;-73
2021/10/24 07:51:03;;;;;;;1.33;0.40;;;;;;;8.29;60.84;97519.75;5060286;28;20032;-72
2021/10/24 07:53:30;;;;;;;2.20;0.68;;;;;;;8.31;60.70;97522.22;5085649;28;20407;-70
2021/10/24 07:56:00;;;;;;;1.65;0.55;;;;;;;8.29;60.97;97519.75;5050587;28;20457;-73
2021/10/24 07:58:26;;;;;;;0.73;0.50;;;;;;;8.29;60.76;97518.91;5064466;28;20082;-73
2021/10/24 08:00:52;;;;;;;0.65;0.55;;;;;;;8.27;61.08;97518.34;5067341;28;20064;-73
2021/10/24 08:03:22;;;;;;;1.05;0.57;;;;;;;8.22;61.06;97514.44;5072601;28;20978;-71
2021/10/24 08:05:50;;;;;;;2.75;1.90;;;;;;;8.19;60.99;97525.06;5075004;28;20487;-75
2021/10/24 08:08:17;;;;;;;1.33;1.23;;;;;;;8.13;61.37;97510.50;5074032;28;20108;-75
2021/10/24 08:10:47;;;;;;;0.82;0.60;;;;;;;8.07;61.10;97508.75;5071369;28;20024;-72
2021/10/24 08:13:13;;;;;;;0.57;0.57;;;;;;;8.02;61.13;97500.47;5072149;28;20037;-76
2021/10/24 08:15:39;;;;;;;0.70;0.70;;;;;;;8.01;61.46;97496.06;5072904;28;20078;-75
2021/10/24 08:18:04;;;;;;;0.63;0.63;;;;;;;8.03;61.42;97496.66;5074466;28;20482;-72
2021/10/24 08:20:30;;;;;;;1.13;0.57;;;;;;;8.06;61.28;97505.19;5068283;28;20119;-69
2021/10/24 08:22:57;;;;;;;1.65;1.55;;;;;;;8.10;61.25;97499.22;5066244;28;20064;-73
2021/10/24 08:25:24;;;;;;;2.53;1.20;;;;;;;8.11;60.92;97506.34;5068901;28;20081;-70
2021/10/24 08:27:50;;;;;;;4.95;1.67;;;;;;;8.11;61.00;97507.16;5074228;28;20128;-75
2021/10/24 08:30:16;;;;;;;5.25;2.13;;;;;;;8.14;60.92;97511.31;5074679;28;20142;-72
2021/10/24 08:32:42;;;;;;;5.70;1.63;;;;;;;8.16;61.06;97503.69;5075762;28;20101;-73
2021/10/24 08:35:10;;;;;;;1.00;0.93;;;;;;;8.20;61.00;97504.81;5075597;28;20051;-74
2021/10/24 08:37:36;;;;;;;0.90;0.90;;;;;;;8.20;60.75;97504.81;5076911;28;20040;-73
2021/10/24 08:40:07;;;;;;;0.55;0.55;;;;;;;8.22;60.94;97497.22;5075488;28;20059;-74
2021/10/24 08:42:38;;;;;;;1.05;1.05;;;;;;;8.22;60.71;97492.56;5074114;28;20151;-74
2021/10/24 08:45:05;;;;;;;0.52;0.52;;;;;;;8.25;60.67;97491.25;5075596;28;20111;-73
2021/10/24 08:47:30;;;;;;;0.40;0.40;;;;;;;8.28;60.75;97504.41;5073430;28;20064;-73
2021/10/24 08:49:56;;;;;;;0.35;0.35;;;;;;;8.30;60.81;97496.75;5072117;28;20032;-71
2021/10/24 08:52:23;;;;;;;1.02;1.02;;;;;;;8.31;60.60;97492.97;5073789;28;20032;-73
2021/10/24 08:54:50;;;;;;;0.30;0.30;;;;;;;8.32;60.66;97485.56;5073170;28;20395;-76
2021/10/24 08:57:29;;;;;;;0.22;0.22;;;;;;;8.33;60.66;97488.09;5075426;28;20017;-76
2021/10/24 08:59:56;;;;;;;0.20;0.20;;;;;;;8.33;60.80;97482.63;5073360;28;20040;-74
2021/10/24 09:02:23;;;;;;;0.47;0.30;;;;;;;8.34;60.72;97480.69;5073974;28;20046;-79
2021/10/24 09:04:52;;;;;;;0.20;0.20;;;;;;;8.31;60.60;97476.56;5075521;28;20093;-72
2021/10/24 09:07:19;;;;;;;0.30;0.30;;;;;;;8.30;60.53;97469.41;5074762;28;20119;-74
2021/10/24 09:09:45;;;;;;;1.30;0.73;;;;;;;8.29;60.62;97467.78;5077199;28;20391;-75
2021/10/24 09:12:13;;;;;;;1.98;0.35;;;;;;;8.28;60.81;97465.31;5076077;28;20043;-76
2021/10/24 09:14:49;;;;;;;0.63;0.63;;;;;;;8.26;61.05;97462.81;5079584;28;20546;-72
2021/10/24 09:17:28;;;;;;;0.30;0.30;;;;;;;8.24;61.07;97460.34;5076284;28;20375;-73
2021/10/24 09:19:58;;;;;;;0.60;0.60;;;;;;;8.22;60.89;97462.50;5076490;28;20036;-76
2021/10/24 09:22:35;;;;;;;1.45;0.50;;;;;;;8.23;60.89;97455.94;5076625;28;20088;-76
2021/10/24 09:25:02;;;;;;;0.20;0.20;;;;;;;8.20;61.16;97456.47;5081110;28;20033;-76
2021/10/24 09:27:29;;;;;;;0.95;0.65;;;;;;;8.20;61.11;97450.13;5080425;28;20054;-74
2021/10/24 09:29:55;;;;;;;0.20;0.20;;;;;;;8.19;61.01;97453.97;5073954;28;20048;-72
2021/10/24 09:32:31;;;;;;;0.80;0.28;;;;;;;8.19;61.15;97443.03;5075170;28;20483;-70
2021/10/24 09:35:03;;;;;;;3.78;1.42;;;;;;;8.20;61.24;97458.34;5074132;28;20028;-72
2021/10/24 09:37:29;;;;;;;1.27;0.77;;;;;;;8.19;61.22;97462.19;5073693;28;20032;-74
2021/10/24 09:39:56;;;;;;;1.35;1.25;;;;;;;8.21;61.23;97463.56;5073607;28;20036;-75
2021/10/24 09:42:23;;;;;;;0.80;0.60;;;;;;;8.22;61.44;97445.25;5072911;28;20044;-75
2021/10/24 09:45:04;;;;;;;0.32;0.32;;;;;;;8.15;61.78;97450.91;5073395;28;20036;-74
2021/10/24 09:47:31;;;;;;;0.30;0.30;;;;;;;8.06;62.04;97445.03;5071911;28;20032;-77
2021/10/24 09:49:57;;;;;;;0.35;0.35;;;;;;;8.00;62.05;97442.50;5071898;28;20036;-74
2021/10/24 09:52:28;;;;;;;0.30;0.30;;;;;;;8.00;61.87;97440.59;5073882;28;20037;-73
2021/10/24 09:54:55;;;;;;;0.17;0.17;;;;;;;8.00;62.12;97437.84;5073842;28;20516;-74
2021/10/24 09:57:23;;;;;;;1.75;0.75;;;;;;;7.94;62.22;97430.66;5074869;28;20121;-75
2021/10/24 09:59:51;;;;;;;0.47;0.47;;;;;;;7.86;62.13;97428.34;5073721;28;20040;-72
2021/10/24 10:02:18;;;;;;;0.35;0.35;;;;;;;7.80;62.56;97432.09;5075713;28;20035;-77
2021/10/24 10:04:45;;;;;;;0.35;0.35;;;;;;;7.76;62.61;97428.22;5082338;28;20075;-78
2021/10/24 10:07:27;;;;;;;0.40;0.40;;;;;;;7.71;62.76;97437.16;5081383;28;20040;-78
2021/10/24 10:09:55;;;;;;;0.52;0.52;;;;;;;7.64;62.71;97426.41;5074974;28;20041;-77
2021/10/24 10:12:24;;;;;;;0.35;0.35;;;;;;;7.58;63.07;97421.94;5074998;28;20029;-74
2021/10/24 10:14:55;;;;;;;0.30;0.30;;;;;;;7.56;62.94;97423.28;5074340;28;20031;-73
2021/10/24 10:17:24;;;;;;;0.20;0.20;;;;;;;7.53;62.98;97419.13;5071217;28;20044;-77
2021/10/24 10:19:51;;;;;;;0.35;0.35;;;;;;;7.53;63.00;97414.50;5069729;28;20036;-74
2021/10/24 10:22:31;;;;;;;0.98;0.75;;;;;;;7.57;62.86;97408.53;5054144;28;20041;-77
2021/10/24 10:25:03;;;;;;;0.25;0.22;;;;;;;7.59;62.90;97418.13;5053684;28;20041;-78
2021/10/24 10:27:29;;;;;;;0.40;0.40;;;;;;;7.59;62.83;97420.88;5055239;28;20068;-78
2021/10/24 10:30:00;;;;;;;0.75;0.65;;;;;;;7.59;63.04;97415.41;5053086;28;20065;-71
2021/10/24 10:32:40;;;;;;;0.75;0.73;;;;;;;7.58;62.99;97416.47;5052797;28;20037;-74
2021/10/24 10:35:18;;;;;;;0.40;0.40;;;;;;;7.56;63.21;97415.91;5069887;28;20510;-71
2021/10/24 10:37:49;;;;;;;0.20;0.20;;;;;;;7.53;63.26;97413.66;5072395;28;20388;-75
2021/10/24 10:40:20;;;;;;;0.57;0.57;;;;;;;7.49;63.21;97409.78;5072679;28;20044;-74
2021/10/24 10:42:55;;;;;;;0.32;0.32;;;;;;;7.48;63.58;97408.13;5071891;28;20067;-75
2021/10/24 10:45:24;;;;;;;0.20;0.20;;;;;;;7.48;63.60;97413.56;5069491;28;20040;-73
2021/10/24 10:48:06;;;;;;;0.40;0.40;;;;;;;7.45;63.48;97405.88;5072434;28;20040;-74
2021/10/24 10:50:43;;;;;;;0.32;0.32;;;;;;;7.42;63.54;97411.84;5071892;28;20131;-73
2021/10/24 10:53:37;;;;;;;0.55;0.55;;;;;;;7.40;63.93;97409.38;5072666;28;20494;-72
2021/10/24 10:56:03;;;;;;;4.47;0.68;;;;;;;7.32;63.99;97407.88;5066416;28;20130;-72
2021/10/24 10:58:33;;;;;;;0.20;0.20;;;;;;;7.33;64.12;97395.91;5070573;28;20044;-72
2021/10/24 11:01:00;;;;;;;0.40;0.40;;;;;;;7.36;63.88;97398.13;5070099;28;20033;-75
2021/10/24 11:03:52;;;;;;;0.20;0.20;;;;;;;7.40;63.85;97400.34;5070115;28;20049;-73
2021/10/24 11:06:27;;;;;;;0.25;0.25;;;;;;;7.39;63.86;97395.97;5070701;28;20032;-73
2021/10/24 11:08:58;;;;;;;2.05;1.55;;;;;;;7.36;64.14;97392.66;5069401;28;20032;-73
2021/10/24 11:14:16;;;;;;;0.82;0.52;;;;;;;7.34;64.06;97392.06;5067883;28;20503;-73
2021/10/24 11:16:49;;;;;;;0.32;0.32;;;;;;;7.29;64.27;97385.72;5066082;28;20415;-72
2021/10/24 11:19:27;;;;;;;0.43;0.28;;;;;;;7.27;64.38;97380.50;5069885;28;20075;-72
2021/10/24 11:21:53;;;;;;;2.15;0.80;;;;;;;7.25;64.33;97385.38;5070263;28;20036;-72
2021/10/24 11:24:19;;;;;;;0.73;0.68;;;;;;;7.25;64.58;97387.28;5071492;28;20024;-71
2021/10/24 11:26:55;;;;;;;0.52;0.52;;;;;;;7.25;64.48;97385.38;5073139;28;20040;-73
2021/10/24 11:29:21;;;;;;;1.55;0.73;;;;;;;7.23;64.50;97386.69;5069757;28;20491;-72
2021/10/24 11:31:46;;;;;;;2.60;1.20;;;;;;;7.23;64.75;97382.09;5069563;28;20067;-74
2021/10/24 11:34:32;;;;;;;1.10;0.82;;;;;;;7.21;64.52;97384.22;5070269;28;20107;-74
2021/10/24 11:36:58;;;;;;;0.30;0.30;;;;;;;7.18;64.78;97387.44;5074608;28;20054;-75
2021/10/24 11:39:24;;;;;;;0.35;0.35;;;;;;;7.19;64.84;97375.47;5090076;28;20037;-73
2021/10/24 11:42:16;;;;;;;0.65;0.40;;;;;;;7.17;64.86;97378.44;5074438;28;20131;-74
2021/10/24 11:44:43;;;;;;;0.40;0.40;;;;;;;7.14;65.00;97378.94;5073061;28;20048;-75
2021/10/24 11:47:13;;;;;;;0.68;0.55;;;;;;;7.15;65.08;97382.50;5072694;28;20078;-71